createdAt,value
2023-04-20T00:02:16.509Z,100.00
2023-04-20T00:04:44.675Z,100.00
2023-04-20T00:07:12.982Z,100.00
2023-04-20T00:09:40.967Z,100.00
2023-04-20T00:12:09.656Z,100.00
2023-04-20T00:14:37.844Z,100.00
2023-04-20T00:17:06.236Z,100.00
2023-04-20T00:19:34.820Z,100.00
2023-04-20T00:22:03.115Z,100.00
2023-04-20T00:24:31.404Z,100.00
2023-04-20T00:26:59.589Z,100.00
2023-04-20T00:29:28.037Z,100.00
2023-04-20T00:31:56.231Z,100.00
2023-04-20T00:34:24.420Z,100.00
2023-04-20T00:36:52.544Z,100.00
2023-04-20T00:39:21.394Z,100.00
2023-04-20T00:41:49.678Z,100.00
2023-04-20T00:44:17.967Z,100.00
2023-04-20T00:46:46.296Z,100.00
2023-04-20T00:49:14.323Z,100.00
2023-04-20T00:51:43.005Z,100.00
2023-04-20T00:54:13.051Z,100.00
2023-04-20T00:56:44.113Z,100.00
2023-04-20T00:59:12.385Z,100.00
2023-04-20T01:01:41.395Z,100.00
2023-04-20T01:04:09.767Z,100.00
2023-04-20T01:06:38.459Z,100.00
2023-04-20T01:09:06.938Z,100.00
2023-04-20T01:11:35.051Z,100.00
2023-04-20T01:14:03.303Z,100.00
2023-04-20T01:16:36.558Z,100.00
2023-04-20T01:19:05.922Z,100.00
2023-04-20T01:21:35.456Z,100.00
2023-04-20T01:24:03.753Z,100.00
2023-04-20T01:26:33.978Z,100.00
2023-04-20T01:29:02.243Z,100.00
2023-04-20T01:31:31.203Z,100.00
2023-04-20T01:33:59.535Z,100.00
2023-04-20T01:36:27.612Z,100.00
2023-04-20T01:38:55.842Z,100.00
2023-04-20T01:41:24.682Z,100.00
2023-04-20T01:43:52.863Z,100.00
2023-04-20T01:46:21.410Z,100.00
2023-04-20T01:48:49.652Z,100.00
2023-04-20T01:51:17.718Z,100.00
2023-04-20T01:53:45.926Z,100.00
2023-04-20T01:56:14.325Z,100.00
2023-04-20T01:58:42.565Z,100.00
2023-04-20T02:01:11.612Z,100.00
2023-04-20T02:03:40.056Z,100.00
2023-04-20T02:06:08.544Z,100.00
2023-04-20T02:08:37.028Z,100.00
2023-04-20T02:11:06.580Z,100.00
2023-04-20T02:13:37.106Z,100.00
2023-04-20T02:16:06.418Z,100.00
2023-04-20T02:18:34.994Z,100.00
2023-04-20T02:21:03.598Z,100.00
2023-04-20T02:23:32.279Z,100.00
2023-04-20T02:26:00.773Z,100.00
2023-04-20T02:28:29.051Z,100.00
2023-04-20T02:30:57.153Z,100.00
2023-04-20T02:33:25.716Z,100.00
2023-04-20T02:35:54.706Z,100.00
2023-04-20T02:38:22.892Z,100.00
2023-04-20T02:40:50.973Z,100.00
2023-04-20T02:43:19.146Z,100.00
2023-04-20T02:45:48.066Z,100.00
2023-04-20T02:48:17.053Z,100.00
2023-04-20T02:50:45.132Z,100.00
2023-04-20T02:53:17.748Z,100.00
2023-04-20T02:55:47.970Z,100.00
2023-04-20T02:58:25.319Z,100.00
2023-04-20T03:01:19.778Z,100.00
2023-04-20T03:03:49.835Z,100.00
2023-04-20T03:06:18.513Z,100.00
2023-04-20T03:08:54.193Z,100.00
2023-04-20T03:11:54.575Z,100.00
2023-04-20T03:14:36.500Z,100.00
2023-04-20T03:17:04.561Z,100.00
2023-04-20T03:19:33.141Z,100.00
2023-04-20T03:22:01.262Z,100.00
2023-04-20T03:24:30.630Z,100.00
2023-04-20T03:26:59.755Z,100.00
2023-04-20T03:29:41.693Z,100.00
2023-04-20T03:32:10.185Z,100.00
2023-04-20T03:34:38.560Z,100.00
2023-04-20T03:37:07.384Z,100.00
2023-04-20T03:39:35.738Z,100.00
2023-04-20T03:42:07.256Z,100.00
2023-04-20T03:44:36.162Z,100.00
2023-04-20T03:47:06.410Z,100.00
2023-04-20T03:49:35.578Z,100.00
2023-04-20T03:52:03.896Z,100.00
2023-04-20T03:54:32.804Z,100.00
2023-04-20T03:57:02.327Z,100.00
2023-04-20T03:59:30.934Z,100.00
2023-04-20T04:02:00.141Z,100.00
2023-04-20T04:04:35.058Z,100.00
2023-04-20T04:07:03.359Z,100.00
2023-04-20T04:09:32.555Z,100.00
2023-04-20T04:12:01.575Z,100.00
2023-04-20T04:14:30.356Z,100.00
2023-04-20T04:16:59.705Z,100.00
2023-04-20T04:19:28.069Z,100.00
2023-04-20T04:21:56.249Z,100.00
2023-04-20T04:24:24.749Z,100.00
2023-04-20T04:27:17.028Z,100.00
2023-04-20T04:29:52.756Z,100.00
2023-04-20T04:32:30.836Z,100.00
2023-04-20T04:35:01.352Z,100.00
2023-04-20T04:37:31.721Z,100.00
2023-04-20T04:40:00.140Z,100.00
2023-04-20T04:42:36.120Z,100.00
2023-04-20T04:45:07.512Z,100.00
2023-04-20T04:47:43.671Z,100.00
2023-04-20T04:50:13.614Z,100.00
2023-04-20T04:52:42.160Z,100.00
2023-04-20T04:55:10.566Z,100.00
2023-04-20T04:57:39.368Z,100.00
2023-04-20T05:00:12.582Z,100.00
2023-04-20T05:02:41.029Z,100.00
2023-04-20T05:05:12.181Z,100.00
2023-04-20T05:07:50.032Z,100.00
2023-04-20T05:10:28.112Z,100.00
2023-04-20T05:12:58.660Z,100.00
2023-04-20T05:15:29.554Z,100.00
2023-04-20T05:18:02.864Z,100.00
2023-04-20T05:20:36.014Z,100.00
2023-04-20T05:23:06.551Z,100.00
2023-04-20T05:25:34.767Z,100.00
2023-04-20T05:28:03.122Z,100.00
2023-04-20T05:30:31.471Z,100.00
2023-04-20T05:32:59.752Z,100.00
2023-04-20T05:35:28.102Z,100.00
2023-04-20T05:37:56.576Z,100.00
2023-04-20T05:40:24.845Z,100.00
2023-04-20T05:42:52.993Z,100.00
2023-04-20T05:45:21.377Z,100.00
2023-04-20T05:47:56.368Z,100.00
2023-04-20T05:50:25.274Z,100.00
2023-04-20T05:52:54.283Z,100.00
2023-04-20T05:55:23.054Z,100.00
2023-04-20T05:57:52.408Z,100.00
2023-04-20T06:00:21.180Z,100.00
2023-04-20T06:02:50.470Z,100.00
2023-04-20T06:05:20.109Z,100.00
2023-04-20T06:07:48.339Z,100.00
2023-04-20T06:10:16.674Z,100.00
2023-04-20T06:12:45.004Z,100.00
2023-04-20T06:15:13.323Z,100.00
2023-04-20T06:17:42.023Z,100.00
2023-04-20T06:20:10.831Z,100.00
2023-04-20T06:22:44.424Z,100.00
2023-04-20T06:25:13.627Z,100.00
2023-04-20T06:27:42.287Z,100.00
2023-04-20T06:30:11.157Z,100.00
2023-04-20T06:32:39.464Z,100.00
2023-04-20T06:35:08.680Z,100.00
2023-04-20T06:37:36.868Z,100.00
2023-04-20T06:40:08.863Z,100.00
2023-04-20T06:42:37.775Z,100.00
2023-04-20T06:45:07.116Z,100.00
2023-04-20T06:47:35.677Z,100.00
2023-04-20T06:50:07.344Z,100.00
2023-04-20T06:54:52.697Z,99.98
2023-04-20T06:57:19.523Z,99.29
2023-04-20T06:59:48.830Z,95.63
2023-04-20T07:02:15.491Z,95.18
2023-04-20T07:04:42.517Z,95.15
2023-04-20T07:07:09.180Z,94.58
2023-04-20T07:09:36.041Z,95.06
2023-04-20T07:12:03.205Z,94.89
2023-04-20T07:14:30.398Z,93.77
2023-04-20T07:16:57.244Z,93.70
2023-04-20T07:19:24.053Z,92.42
2023-04-20T07:21:50.792Z,92.38
2023-04-20T07:24:17.523Z,91.88
2023-04-20T07:34:20.793Z,91.76
2023-04-20T07:36:49.553Z,92.11
2023-04-20T07:39:18.071Z,90.36
2023-04-20T07:41:46.757Z,91.73
2023-04-20T07:44:14.871Z,90.28
2023-04-20T07:46:42.990Z,89.95
2023-04-20T07:49:11.196Z,88.92
2023-04-20T07:51:39.313Z,87.44
2023-04-20T07:54:08.405Z,88.79
2023-04-20T07:56:37.358Z,87.18
2023-04-20T07:59:05.578Z,85.62
2023-04-20T08:01:33.968Z,86.84
2023-04-20T08:04:02.776Z,84.37
2023-04-20T08:06:33.149Z,82.95
2023-04-20T08:09:01.308Z,84.10
2023-04-20T08:11:29.631Z,84.62
2023-04-20T08:13:58.477Z,83.07
2023-04-20T08:16:26.591Z,84.07
2023-04-20T08:18:55.185Z,82.23
2023-04-20T08:21:25.483Z,81.41
2023-04-20T08:23:55.623Z,81.17
2023-04-20T08:26:25.472Z,81.45
2023-04-20T08:28:53.783Z,77.32
2023-04-20T08:31:21.980Z,69.74
2023-04-20T08:33:50.325Z,67.00
2023-04-20T08:36:18.894Z,67.41
2023-04-20T08:38:54.298Z,68.78
2023-04-20T08:41:22.535Z,65.09
2023-04-20T08:43:50.672Z,65.87
2023-04-20T08:46:19.286Z,66.72
2023-04-20T08:48:48.796Z,66.98
2023-04-20T08:51:18.300Z,67.17
2023-04-20T08:53:46.605Z,66.85
2023-04-20T08:56:14.742Z,64.54
2023-04-20T08:58:42.941Z,64.02
2023-04-20T09:01:12.742Z,63.65
2023-04-20T09:03:43.102Z,61.78
2023-04-20T09:06:16.123Z,61.59
2023-04-20T09:08:44.807Z,60.58
2023-04-20T09:11:22.846Z,62.69
2023-04-20T09:13:59.212Z,62.38
2023-04-20T09:16:27.266Z,59.83
2023-04-20T09:18:56.763Z,59.90
2023-04-20T09:21:26.647Z,61.41
2023-04-20T09:24:08.071Z,60.99
2023-04-20T09:26:36.378Z,59.66
2023-04-20T09:29:04.937Z,59.35
2023-04-20T09:31:33.538Z,59.03
2023-04-20T09:34:02.944Z,59.95
2023-04-20T09:36:38.308Z,62.81
2023-04-20T09:39:19.596Z,60.09
2023-04-20T09:41:48.239Z,58.83
2023-04-20T09:44:17.343Z,57.78
2023-04-20T09:46:46.665Z,58.41
2023-04-20T09:49:15.058Z,57.58
2023-04-20T09:51:46.549Z,57.37
2023-04-20T09:54:16.078Z,58.49
2023-04-20T09:56:44.895Z,57.59
2023-04-20T09:59:12.970Z,56.52
2023-04-20T10:01:41.255Z,56.74
2023-04-20T10:04:11.208Z,55.99
2023-04-20T10:06:39.983Z,56.38
2023-04-20T10:09:08.795Z,55.86
2023-04-20T10:11:52.479Z,57.71
2023-04-20T10:14:25.632Z,55.03
2023-04-20T10:17:07.124Z,54.54
2023-04-20T10:19:43.130Z,57.14
2023-04-20T10:22:13.135Z,57.51
2023-04-20T10:24:49.164Z,58.64
2023-04-20T10:27:25.707Z,53.90
2023-04-20T10:29:54.255Z,52.87
2023-04-20T10:32:29.091Z,52.87
2023-04-20T10:35:05.074Z,52.83
2023-04-20T10:37:34.226Z,52.92
2023-04-20T10:40:03.791Z,53.31
2023-04-20T10:42:44.884Z,55.61
2023-04-20T10:45:13.366Z,55.34
2023-04-20T10:47:41.751Z,55.25
2023-04-20T10:50:14.081Z,53.81
2023-04-20T10:52:43.590Z,52.47
2023-04-20T10:55:27.593Z,52.49
2023-04-20T10:57:55.758Z,51.71
2023-04-20T11:00:47.120Z,50.99
2023-04-20T11:03:15.519Z,52.44
2023-04-20T11:05:44.552Z,51.64
2023-04-20T11:08:12.491Z,51.54
2023-04-20T11:10:42.300Z,51.79
2023-04-20T11:13:23.700Z,50.05
2023-04-20T11:15:52.560Z,51.24
2023-04-20T11:18:21.582Z,51.59
2023-04-20T11:20:54.067Z,51.65
2023-04-20T11:23:23.968Z,52.94
2023-04-20T11:25:56.060Z,52.59
2023-04-20T11:28:24.194Z,54.73
2023-04-20T11:30:52.840Z,55.65
2023-04-20T11:33:31.300Z,55.78
2023-04-20T11:35:59.995Z,55.33
2023-04-20T11:38:32.774Z,55.44
2023-04-20T11:41:04.786Z,53.83
2023-04-20T11:43:33.057Z,53.50
2023-04-20T11:46:02.907Z,54.83
2023-04-20T11:48:31.643Z,54.96
2023-04-20T11:50:59.878Z,53.37
2023-04-20T11:53:27.942Z,53.69
2023-04-20T11:55:55.965Z,54.38
2023-04-20T11:58:26.648Z,54.50
2023-04-20T12:00:54.691Z,53.87
2023-04-20T12:03:23.067Z,53.28
2023-04-20T12:05:51.510Z,52.59
2023-04-20T12:08:20.591Z,52.24
2023-04-20T12:18:28.306Z,49.13
2023-04-20T12:20:56.702Z,48.20
2023-04-20T12:23:25.627Z,49.20
2023-04-20T12:25:54.006Z,49.65
2023-04-20T12:28:22.729Z,48.62
2023-04-20T12:30:51.047Z,49.38
2023-04-20T12:33:19.434Z,48.20
2023-04-20T12:35:48.823Z,48.03
2023-04-20T12:45:55.756Z,46.82
2023-04-20T12:48:23.975Z,45.85
2023-04-20T12:50:52.368Z,46.99
2023-04-20T12:53:20.606Z,46.27
2023-04-20T12:55:55.048Z,46.84
2023-04-20T12:58:29.278Z,46.38
2023-04-20T13:00:57.617Z,47.31
2023-04-20T13:03:26.488Z,47.39
2023-04-20T13:05:55.032Z,46.85
2023-04-20T13:08:23.367Z,45.75
2023-04-20T13:10:51.597Z,46.26
2023-04-20T13:13:19.781Z,47.49
2023-04-20T13:15:47.854Z,48.57
2023-04-20T13:18:17.423Z,48.70
2023-04-20T13:20:45.424Z,48.68
2023-04-20T13:23:15.373Z,48.09
2023-04-20T13:25:43.922Z,47.94
2023-04-20T13:28:14.501Z,46.43
2023-04-20T13:30:43.058Z,44.99
2023-04-20T13:33:11.322Z,44.03
2023-04-20T13:35:40.318Z,44.63
2023-04-20T13:38:08.524Z,44.12
2023-04-20T13:40:37.255Z,44.35
2023-04-20T13:43:05.510Z,43.31
2023-04-20T13:45:33.907Z,44.36
2023-04-20T13:48:02.223Z,44.90
2023-04-20T13:50:30.669Z,44.65
2023-04-20T13:52:58.767Z,45.16
2023-04-20T13:55:27.271Z,45.00
2023-04-20T13:57:55.646Z,45.70
2023-04-20T14:00:24.148Z,44.32
2023-04-20T14:02:52.573Z,45.44
2023-04-20T14:05:21.135Z,44.65
2023-04-20T14:07:49.511Z,42.51
2023-04-20T14:10:17.747Z,42.82
2023-04-20T14:12:45.980Z,43.52
2023-04-20T14:15:14.374Z,43.74
2023-04-20T14:17:42.780Z,44.85
2023-04-20T14:20:11.771Z,46.42
2023-04-20T14:22:40.682Z,46.24
2023-04-20T14:25:10.011Z,45.73
2023-04-20T14:27:38.954Z,46.31
2023-04-20T14:30:08.391Z,46.90
2023-04-20T14:32:36.824Z,46.17
2023-04-20T14:35:06.180Z,46.64
2023-04-20T14:37:34.398Z,47.03
2023-04-20T14:40:03.716Z,47.11
2023-04-20T14:42:32.072Z,46.63
2023-04-20T14:45:00.228Z,46.92
2023-04-20T14:47:28.898Z,46.38
2023-04-20T14:49:57.151Z,47.10
2023-04-20T14:52:25.633Z,47.85
2023-04-20T14:54:54.046Z,48.26
2023-04-20T14:57:22.517Z,48.26
2023-04-20T14:59:50.471Z,48.93
2023-04-20T15:02:18.834Z,49.63
2023-04-20T15:04:47.429Z,50.46
2023-04-20T15:07:15.847Z,51.00
2023-04-20T15:09:44.108Z,51.27
2023-04-20T15:12:12.307Z,51.58
2023-04-20T15:14:40.695Z,52.33
2023-04-20T15:17:09.039Z,52.88
2023-04-20T15:19:37.225Z,52.89
2023-04-20T15:22:05.426Z,53.25
2023-04-20T15:24:33.653Z,53.94
2023-04-20T15:27:02.519Z,53.96
2023-04-20T15:29:31.537Z,54.17
2023-04-20T15:31:59.823Z,54.56
2023-04-20T15:34:28.566Z,54.52
2023-04-20T15:36:56.606Z,54.71
2023-04-20T15:39:24.728Z,55.10
2023-04-20T15:41:53.093Z,55.05
2023-04-20T15:44:21.142Z,55.18
2023-04-20T15:46:49.134Z,55.13
2023-04-20T15:49:20.226Z,54.83
2023-04-20T15:51:48.613Z,55.14
2023-04-20T15:57:04.131Z,55.23
2023-04-20T15:59:32.687Z,55.08
2023-04-20T16:02:01.111Z,55.35
2023-04-20T16:04:30.107Z,54.75
2023-04-20T16:06:59.005Z,54.82
2023-04-20T16:09:27.812Z,54.99
2023-04-20T16:11:56.103Z,55.38
2023-04-20T16:14:24.406Z,56.00
2023-04-20T16:16:52.803Z,56.64
2023-04-20T16:19:20.985Z,56.91
2023-04-20T16:21:49.087Z,57.48
2023-04-20T16:24:17.623Z,57.56
2023-04-20T16:26:46.669Z,57.22
2023-04-20T16:29:14.749Z,57.11
2023-04-20T16:31:42.818Z,56.63
2023-04-20T16:34:11.035Z,55.79
2023-04-20T16:36:39.081Z,57.08
2023-04-20T16:39:07.774Z,57.33
2023-04-20T16:41:36.431Z,57.35
2023-04-20T16:44:04.898Z,57.10
2023-04-20T16:46:33.145Z,57.11
2023-04-20T16:49:01.414Z,57.69
2023-04-20T16:51:30.010Z,57.93
2023-04-20T16:53:58.111Z,58.19
2023-04-20T16:56:26.313Z,58.62
2023-04-20T16:58:54.492Z,59.46
2023-04-20T17:01:22.578Z,60.25
2023-04-20T17:03:51.903Z,60.74
2023-04-20T17:06:19.953Z,61.45
2023-04-20T17:08:49.396Z,61.58
2023-04-20T17:11:19.565Z,62.25
2023-04-20T17:13:47.795Z,61.69
2023-04-20T17:16:16.029Z,62.03
2023-04-20T17:26:30.459Z,63.96
2023-04-20T17:28:57.420Z,64.76
2023-04-20T17:31:24.122Z,65.26
2023-04-20T17:33:52.572Z,64.00
2023-04-20T17:36:19.297Z,64.28
2023-04-20T17:38:46.250Z,64.40
2023-04-20T17:41:12.900Z,62.90
2023-04-20T17:43:40.372Z,63.16
2023-04-20T17:46:07.750Z,63.41
2023-04-20T17:48:35.029Z,63.47
2023-04-20T17:51:02.100Z,63.96
2023-04-20T17:53:28.910Z,64.33
2023-04-20T17:55:55.569Z,64.38
2023-04-20T17:58:22.948Z,65.04
2023-04-20T18:00:50.696Z,65.36
2023-04-20T18:03:19.175Z,66.02
2023-04-20T18:05:46.329Z,66.02
2023-04-20T18:08:15.136Z,66.02
2023-04-20T18:10:42.152Z,66.40
2023-04-20T18:13:08.867Z,66.24
2023-04-20T18:15:35.738Z,66.53
2023-04-20T18:18:03.138Z,66.95
2023-04-20T18:20:32.394Z,67.40
2023-04-20T18:22:59.775Z,67.90
2023-04-20T18:25:26.688Z,68.10
2023-04-20T18:27:53.495Z,68.39
2023-04-20T18:30:20.590Z,68.57
2023-04-20T18:32:47.542Z,68.39
2023-04-20T18:35:15.093Z,69.16
2023-04-20T18:37:42.282Z,69.15
2023-04-20T18:40:09.687Z,69.49
2023-04-20T18:42:36.532Z,70.52
2023-04-20T18:45:05.521Z,71.27
2023-04-20T18:47:32.870Z,71.99
2023-04-20T18:50:00.264Z,71.47
2023-04-20T18:52:27.282Z,71.12
2023-04-20T18:54:54.785Z,70.86
2023-04-20T18:57:25.367Z,70.91
2023-04-20T18:59:52.778Z,71.24
2023-04-20T19:02:19.846Z,71.17
2023-04-20T19:04:46.728Z,71.74
2023-04-20T19:07:13.396Z,71.61
2023-04-20T19:12:09.051Z,71.40
2023-04-20T19:14:37.680Z,71.48
2023-04-20T19:17:06.956Z,72.00
2023-04-20T19:19:35.733Z,72.46
2023-04-20T19:22:04.729Z,72.47
2023-04-20T19:24:34.454Z,72.35
2023-04-20T19:27:02.488Z,72.96
2023-04-20T19:29:31.400Z,73.26
2023-04-20T19:31:59.590Z,74.46
2023-04-20T19:34:27.651Z,75.40
2023-04-20T19:36:55.940Z,76.82
2023-04-20T19:39:23.878Z,78.35
2023-04-20T19:41:52.193Z,80.13
2023-04-20T19:44:20.892Z,80.95
2023-04-20T19:46:50.018Z,82.07
2023-04-20T19:49:18.698Z,82.65
2023-04-20T19:51:47.472Z,83.11
2023-04-20T19:54:17.547Z,84.07
2023-04-20T19:56:45.857Z,86.05
2023-04-20T19:59:14.141Z,88.38
2023-04-20T20:01:42.259Z,90.62
2023-04-20T20:04:10.731Z,92.17
2023-04-20T20:06:39.458Z,93.85
2023-04-20T20:09:07.813Z,95.23
2023-04-20T20:11:36.136Z,95.62
2023-04-20T20:14:04.228Z,95.23
2023-04-20T20:16:32.784Z,95.07
2023-04-20T20:19:01.203Z,95.39
2023-04-20T20:21:29.497Z,95.14
2023-04-20T20:23:57.699Z,95.25
2023-04-20T20:26:25.738Z,95.28
2023-04-20T20:28:53.881Z,95.06
2023-04-20T20:31:22.466Z,95.37
2023-04-20T20:33:51.136Z,95.60
2023-04-20T20:36:19.320Z,95.99
2023-04-20T20:38:47.505Z,95.94
2023-04-20T20:41:16.336Z,96.39
2023-04-20T20:43:45.935Z,96.93
2023-04-20T20:46:14.249Z,96.91
2023-04-20T20:48:42.722Z,96.97
2023-04-20T20:51:11.750Z,96.92
2023-04-20T20:53:40.042Z,97.03
2023-04-20T20:56:08.871Z,97.01
2023-04-20T20:58:37.346Z,96.83
2023-04-20T21:01:06.348Z,97.14
2023-04-20T21:03:34.971Z,97.23
2023-04-20T21:06:03.754Z,97.11
2023-04-20T21:08:32.047Z,97.69
2023-04-20T21:11:00.231Z,98.11
2023-04-20T21:13:28.857Z,98.21
2023-04-20T21:15:57.335Z,98.68
2023-04-20T21:18:25.617Z,98.74
2023-04-20T21:20:53.701Z,98.72
2023-04-20T21:23:21.998Z,98.75
2023-04-20T21:25:50.209Z,98.73
2023-04-20T21:28:18.673Z,98.81
2023-04-20T21:30:46.785Z,98.86
2023-04-20T21:33:15.376Z,99.09
2023-04-20T21:35:43.948Z,98.90
2023-04-20T21:38:12.634Z,98.67
2023-04-20T21:40:40.754Z,98.69
2023-04-20T21:43:08.948Z,98.37
2023-04-20T21:45:37.774Z,97.96
2023-04-20T21:48:06.223Z,97.79
2023-04-20T21:50:36.850Z,97.46
2023-04-20T21:53:05.105Z,97.37
2023-04-20T21:55:33.491Z,97.50
2023-04-20T21:58:01.764Z,97.48
2023-04-20T22:00:30.068Z,97.04
2023-04-20T22:02:58.439Z,96.83
2023-04-20T22:05:27.963Z,96.86
2023-04-20T22:07:59.217Z,96.55
2023-04-20T22:10:28.718Z,96.12
2023-04-20T22:12:56.992Z,96.41
2023-04-20T22:15:26.160Z,96.26
2023-04-20T22:17:54.710Z,96.50
2023-04-20T22:20:22.787Z,96.51
2023-04-20T22:22:50.894Z,96.55
2023-04-20T22:25:18.852Z,96.27
2023-04-20T22:27:46.886Z,96.12
2023-04-20T22:30:14.968Z,96.41
2023-04-20T22:32:43.105Z,95.96
2023-04-20T22:35:11.158Z,95.55
2023-04-20T22:37:39.114Z,95.05
2023-04-20T22:40:07.995Z,94.96
2023-04-20T22:42:38.804Z,94.67
2023-04-20T22:45:09.403Z,94.65
2023-04-20T22:47:38.382Z,94.18
2023-04-20T22:50:06.960Z,93.70
2023-04-20T22:55:54.830Z,92.96
2023-04-20T22:58:23.175Z,92.55
2023-04-20T23:00:51.517Z,92.10
2023-04-20T23:03:20.177Z,91.68
2023-04-20T23:05:48.745Z,91.48
2023-04-20T23:08:17.762Z,91.60
2023-04-20T23:10:47.556Z,91.40
2023-04-20T23:13:18.619Z,91.07
2023-04-20T23:15:46.750Z,90.73
2023-04-20T23:18:15.275Z,90.86
2023-04-20T23:20:43.500Z,90.48
2023-04-20T23:23:11.848Z,90.29
2023-04-20T23:25:39.874Z,90.19
2023-04-20T23:28:08.207Z,89.89
2023-04-20T23:30:36.644Z,89.84
2023-04-20T23:33:05.170Z,89.20
2023-04-20T23:35:34.416Z,88.89
2023-04-20T23:38:04.028Z,88.94
2023-04-20T23:40:33.124Z,88.40
2023-04-20T23:43:01.521Z,88.41
2023-04-20T23:45:30.003Z,88.40
2023-04-20T23:47:58.189Z,88.89
2023-04-20T23:50:26.683Z,88.76
2023-04-20T23:52:54.850Z,88.64
2023-04-20T23:55:23.134Z,89.11
2023-04-20T23:57:52.937Z,88.68
